Marionville, Missouri
Current Conditions -  °F | °C
As of 2:52 AM on Monday 22 Dec 2014 (Local Time) from KSGF Reporting Station
Overcast Overcast  
Wind Chill: 36°   Ceiling: 2500
Heat Index: 43°   Visibility: 10mi
Dew Point: 36°   Wind: 15mph
Humidity: 76%   Direction: 150°SSE
Pressure: 29.7"   Gusts: NA
Location:  37°N, 93.64°W
Report Text: KSGF 220852Z 15013KT 10SM BKN025 OVC050 06/02 A2970 RMK AO2 SLP060 T00610022 56033
Loading
Personal Weather Stations






























Interactive Weather Map New forecast layout! Learn more

10-Day Weather Forecast

Advertisements
Track Severe Weather on mobile